createdAt,value
2019-03-25T00:00:09.891Z,28.47
2019-03-25T00:02:38.994Z,30.70
2019-03-25T00:05:08.360Z,29.13
2019-03-25T00:07:37.410Z,29.13
2019-03-25T00:10:06.803Z,27.20
2019-03-25T00:12:36.021Z,28.43
2019-03-25T00:15:05.445Z,29.40
2019-03-25T00:17:34.646Z,29.37
2019-03-25T00:20:04.051Z,28.00
2019-03-25T00:22:33.518Z,27.03
2019-03-25T00:25:03.331Z,30.03
2019-03-25T00:27:32.769Z,28.77
2019-03-25T00:30:02.372Z,30.27
2019-03-25T00:32:31.717Z,29.90
2019-03-25T00:35:01.437Z,29.37
2019-03-25T00:37:30.257Z,29.63
2019-03-25T00:39:59.574Z,30.73
2019-03-25T00:42:29.143Z,28.63
2019-03-25T00:44:58.526Z,29.90
2019-03-25T00:47:27.626Z,30.47
2019-03-25T00:49:56.978Z,29.60
2019-03-25T00:52:26.020Z,29.67
2019-03-25T00:54:55.074Z,30.80
2019-03-25T00:57:24.102Z,29.07
2019-03-25T00:59:53.491Z,30.03
2019-03-25T01:02:23.208Z,28.70
2019-03-25T01:04:52.833Z,28.60
2019-03-25T01:07:21.893Z,29.40
2019-03-25T01:09:51.178Z,30.80
2019-03-25T01:12:20.522Z,30.00
2019-03-25T01:14:49.467Z,30.90
2019-03-25T01:17:19.050Z,31.97
2019-03-25T01:19:48.331Z,31.43
2019-03-25T01:22:17.369Z,29.50
2019-03-25T01:24:46.634Z,32.37
2019-03-25T01:27:15.962Z,29.43
2019-03-25T01:29:45.025Z,29.83
2019-03-25T01:32:14.324Z,31.20
2019-03-25T01:34:43.258Z,32.20
2019-03-25T01:37:12.585Z,29.53
2019-03-25T01:39:41.633Z,29.93
2019-03-25T01:42:11.565Z,32.03
2019-03-25T01:44:41.146Z,31.77
2019-03-25T01:47:10.750Z,30.53
2019-03-25T01:49:39.781Z,30.93
2019-03-25T01:52:08.883Z,30.33
2019-03-25T01:54:38.237Z,30.87
2019-03-25T01:57:07.659Z,30.53
2019-03-25T01:59:36.731Z,33.13
2019-03-25T02:02:05.738Z,32.10
2019-03-25T02:04:34.781Z,33.33
2019-03-25T02:07:03.815Z,31.50
2019-03-25T02:09:32.835Z,30.83
2019-03-25T02:12:01.883Z,32.53
2019-03-25T02:14:31.454Z,30.77
2019-03-25T02:17:00.502Z,30.67
2019-03-25T02:19:29.546Z,30.63
2019-03-25T02:21:58.614Z,31.73
2019-03-25T02:24:27.648Z,30.60
2019-03-25T02:26:56.670Z,33.80
2019-03-25T02:29:25.949Z,32.20
2019-03-25T02:31:54.910Z,31.07
2019-03-25T02:34:24.478Z,31.80
2019-03-25T02:36:56.093Z,30.57
2019-03-25T02:39:25.530Z,30.77
2019-03-25T02:41:54.746Z,31.73
2019-03-25T02:44:23.785Z,32.07
2019-03-25T02:46:52.876Z,32.37
2019-03-25T02:49:22.206Z,30.20
2019-03-25T02:51:51.267Z,31.37
2019-03-25T02:54:20.659Z,31.27
2019-03-25T02:56:49.779Z,30.30
2019-03-25T02:59:19.299Z,30.27
2019-03-25T03:01:48.918Z,31.53
2019-03-25T03:04:18.106Z,32.00
2019-03-25T03:06:47.486Z,32.00
2019-03-25T03:09:16.501Z,31.87
2019-03-25T03:11:45.758Z,30.77
2019-03-25T03:14:15.624Z,30.60
2019-03-25T03:16:45.072Z,32.87
2019-03-25T03:19:14.495Z,30.53
2019-03-25T03:21:43.567Z,30.70
2019-03-25T03:24:12.947Z,29.20
2019-03-25T03:26:42.010Z,33.13
2019-03-25T03:29:11.062Z,30.67
2019-03-25T03:31:40.157Z,31.93
2019-03-25T03:34:09.283Z,31.73
2019-03-25T03:36:38.307Z,30.73
2019-03-25T03:39:08.096Z,31.27
2019-03-25T03:41:37.427Z,33.63
2019-03-25T03:44:06.757Z,31.87
2019-03-25T03:46:36.175Z,29.97
2019-03-25T03:49:05.518Z,31.80
2019-03-25T03:51:34.468Z,32.60
2019-03-25T03:54:04.044Z,30.57
2019-03-25T03:56:33.664Z,32.20
2019-03-25T03:59:05.250Z,31.53
2019-03-25T04:01:34.872Z,28.70
2019-03-25T04:04:04.493Z,29.73
2019-03-25T04:06:34.108Z,31.33
2019-03-25T04:09:04.566Z,27.47
2019-03-25T04:11:33.571Z,27.60
2019-03-25T04:14:03.236Z,28.93
2019-03-25T04:16:32.413Z,28.50
2019-03-25T04:19:01.627Z,28.17
2019-03-25T04:21:30.688Z,27.17
2019-03-25T04:23:59.600Z,27.57
2019-03-25T04:26:29.665Z,26.67
2019-03-25T04:28:58.971Z,26.53
2019-03-25T04:31:28.344Z,27.53
2019-03-25T04:33:57.430Z,26.57
2019-03-25T04:36:29.545Z,27.40
2019-03-25T04:38:58.616Z,27.30
2019-03-25T04:41:27.666Z,27.70
2019-03-25T04:43:57.222Z,25.20
2019-03-25T04:46:26.846Z,25.77
2019-03-25T04:48:56.085Z,24.13
2019-03-25T04:51:26.716Z,25.13
2019-03-25T04:53:56.292Z,23.03
2019-03-25T04:56:25.385Z,22.30
2019-03-25T04:58:54.746Z,22.07
2019-03-25T05:01:24.181Z,23.60
2019-03-25T05:03:53.247Z,23.63
2019-03-25T05:06:21.851Z,22.70
2019-03-25T05:08:50.499Z,23.33
2019-03-25T05:11:30.078Z,22.50
2019-03-25T05:13:50.122Z,21.10
2019-03-25T05:16:19.164Z,20.67
2019-03-25T05:18:48.214Z,19.60
2019-03-25T05:21:17.206Z,20.83
2019-03-25T05:23:46.256Z,19.90
2019-03-25T05:26:15.757Z,19.53
2019-03-25T05:28:45.078Z,18.80
2019-03-25T05:31:14.686Z,18.93
2019-03-25T05:33:44.115Z,20.03
2019-03-25T05:36:13.552Z,17.53
2019-03-25T05:38:42.607Z,18.13
2019-03-25T05:41:11.695Z,17.47
2019-03-25T05:43:40.509Z,16.43
2019-03-25T05:46:09.135Z,17.60
2019-03-25T05:48:38.126Z,16.60
2019-03-25T05:51:07.314Z,16.37
2019-03-25T05:53:36.094Z,14.97
2019-03-25T05:56:04.856Z,16.47
2019-03-25T05:58:33.483Z,15.33
2019-03-25T06:01:02.393Z,14.47
2019-03-25T06:03:31.034Z,13.77
2019-03-25T06:05:59.843Z,14.80
2019-03-25T06:08:28.444Z,13.40
2019-03-25T06:10:57.403Z,12.97
2019-03-25T06:13:26.822Z,13.10
2019-03-25T06:15:56.041Z,12.47
2019-03-25T06:18:24.670Z,14.00
2019-03-25T06:20:53.379Z,13.30
2019-03-25T06:23:21.986Z,14.30
2019-03-25T06:25:50.571Z,12.47
2019-03-25T06:28:19.227Z,12.80
2019-03-25T06:30:47.841Z,11.80
2019-03-25T06:33:16.472Z,12.50
2019-03-25T06:35:45.159Z,11.57
2019-03-25T06:38:13.784Z,11.30
2019-03-25T06:40:42.494Z,11.63
2019-03-25T06:43:11.112Z,10.80
2019-03-25T06:45:40.091Z,12.67
2019-03-25T06:48:09.064Z,11.83
2019-03-25T06:50:40.819Z,11.57
2019-03-25T06:53:09.730Z,11.90
2019-03-25T06:55:38.343Z,11.57
2019-03-25T06:58:07.190Z,11.17
2019-03-25T07:00:36.745Z,11.17
2019-03-25T07:03:05.693Z,11.27
2019-03-25T07:05:34.514Z,10.60
2019-03-25T07:08:03.742Z,10.53
2019-03-25T07:10:33.624Z,10.93
2019-03-25T07:13:02.714Z,10.93
2019-03-25T07:15:31.496Z,11.43
2019-03-25T07:18:06.535Z,10.53
2019-03-25T07:20:35.164Z,10.17
2019-03-25T07:23:04.370Z,10.27
2019-03-25T07:25:33.346Z,10.53
2019-03-25T07:28:01.951Z,9.60
2019-03-25T07:30:31.064Z,9.97
2019-03-25T07:32:59.922Z,10.23
2019-03-25T07:35:28.958Z,10.83
2019-03-25T07:37:57.955Z,9.97
2019-03-25T07:40:27.014Z,10.07
2019-03-25T07:42:56.144Z,10.30
2019-03-25T07:45:24.859Z,9.17
2019-03-25T07:47:53.470Z,10.50
2019-03-25T07:50:22.423Z,9.50
2019-03-25T07:52:51.390Z,9.03
2019-03-25T07:55:20.812Z,10.10
2019-03-25T07:57:49.852Z,8.93
2019-03-25T08:00:19.132Z,10.03
2019-03-25T08:02:48.108Z,9.97
2019-03-25T08:05:17.131Z,10.20
2019-03-25T08:07:46.544Z,9.80
2019-03-25T08:10:17.700Z,9.13
2019-03-25T08:12:46.788Z,10.03
2019-03-25T08:15:16.559Z,9.07
2019-03-25T08:17:45.750Z,9.03
2019-03-25T08:20:15.350Z,9.67
2019-03-25T08:22:45.018Z,8.63
2019-03-25T08:25:14.402Z,8.30
2019-03-25T08:27:43.532Z,8.93
2019-03-25T08:30:12.664Z,9.73
2019-03-25T08:32:41.287Z,9.20
2019-03-25T08:35:10.520Z,9.83
2019-03-25T08:37:39.112Z,9.70
2019-03-25T08:40:09.578Z,8.70
2019-03-25T08:42:38.208Z,9.73
2019-03-25T08:45:07.626Z,11.13
2019-03-25T08:47:36.230Z,9.83
2019-03-25T08:50:05.171Z,11.00
2019-03-25T08:52:34.067Z,9.57
2019-03-25T08:55:03.578Z,9.23
2019-03-25T08:57:32.811Z,10.03
2019-03-25T09:00:01.855Z,9.23
2019-03-25T09:02:31.164Z,10.50
2019-03-25T09:05:00.501Z,9.60
2019-03-25T09:07:29.112Z,9.63
2019-03-25T09:09:58.152Z,8.67
2019-03-25T09:12:26.916Z,8.13
2019-03-25T09:14:55.724Z,10.53
2019-03-25T09:17:24.690Z,9.13
2019-03-25T09:19:53.698Z,9.00
2019-03-25T09:22:22.775Z,8.30
2019-03-25T09:24:52.139Z,9.00
2019-03-25T09:27:21.565Z,8.10
2019-03-25T09:29:50.788Z,7.03
2019-03-25T09:32:19.847Z,8.23
2019-03-25T09:34:48.881Z,8.23
2019-03-25T09:37:18.457Z,7.83
2019-03-25T09:39:47.508Z,7.70
2019-03-25T09:42:16.718Z,7.77
2019-03-25T09:44:46.146Z,7.03
2019-03-25T09:47:15.186Z,6.43
2019-03-25T09:49:44.222Z,6.93
2019-03-25T09:52:13.271Z,6.50
2019-03-25T09:54:42.405Z,6.27
2019-03-25T09:57:11.307Z,7.10
2019-03-25T09:59:40.718Z,6.77
2019-03-25T10:02:10.329Z,7.23
2019-03-25T10:04:39.381Z,7.80
2019-03-25T10:07:09.579Z,7.63
2019-03-25T10:09:38.630Z,7.80
2019-03-25T10:12:08.219Z,6.73
2019-03-25T10:14:37.646Z,6.47
2019-03-25T10:17:06.711Z,6.00
2019-03-25T10:19:35.742Z,6.27
2019-03-25T10:22:05.319Z,5.13
2019-03-25T10:24:34.375Z,5.17
2019-03-25T10:27:03.778Z,4.73
2019-03-25T10:29:33.123Z,4.47
2019-03-25T10:32:02.191Z,5.00
2019-03-25T10:34:31.367Z,4.63
2019-03-25T10:37:00.299Z,4.27
2019-03-25T10:39:29.614Z,3.93
2019-03-25T10:41:58.554Z,4.47
2019-03-25T10:44:27.592Z,4.20
2019-03-25T10:46:57.218Z,4.43
2019-03-25T10:49:26.518Z,4.37
2019-03-25T10:51:55.444Z,4.30
2019-03-25T10:54:24.572Z,3.70
2019-03-25T10:56:53.909Z,3.97
2019-03-25T10:59:22.959Z,4.27
2019-03-25T11:01:51.993Z,4.07
2019-03-25T11:04:21.074Z,3.77
2019-03-25T11:06:50.226Z,3.97
2019-03-25T11:09:19.365Z,4.17
2019-03-25T11:11:48.674Z,4.50
2019-03-25T11:14:18.091Z,3.87
2019-03-25T11:16:47.423Z,4.33
2019-03-25T11:19:16.646Z,3.70
2019-03-25T11:21:45.616Z,3.73
2019-03-25T11:24:15.257Z,3.53
2019-03-25T11:26:44.522Z,3.60
2019-03-25T11:29:13.470Z,4.50
2019-03-25T11:31:42.874Z,4.10
2019-03-25T11:34:11.923Z,3.70
2019-03-25T11:36:40.969Z,3.60
2019-03-25T11:39:10.259Z,4.10
2019-03-25T11:41:39.210Z,4.20
2019-03-25T11:44:08.516Z,3.73
2019-03-25T11:46:37.569Z,3.27
2019-03-25T11:49:06.766Z,3.90
2019-03-25T11:51:35.727Z,3.73
2019-03-25T11:54:05.316Z,4.43
2019-03-25T11:56:34.647Z,3.70
2019-03-25T11:59:04.164Z,4.03
2019-03-25T12:01:33.595Z,4.30
2019-03-25T12:04:02.635Z,4.47
2019-03-25T12:06:31.698Z,5.07
2019-03-25T12:09:01.075Z,5.13
2019-03-25T12:11:30.686Z,4.73
2019-03-25T12:13:59.768Z,4.83
2019-03-25T12:16:28.763Z,6.00
2019-03-25T12:18:58.369Z,5.63
2019-03-25T12:21:27.798Z,5.30
2019-03-25T12:23:57.218Z,5.57
2019-03-25T12:26:26.143Z,5.57
2019-03-25T12:28:55.096Z,5.80
2019-03-25T12:31:24.104Z,5.67
2019-03-25T12:33:53.166Z,6.63
2019-03-25T12:36:22.206Z,6.37
2019-03-25T12:38:51.359Z,5.43
2019-03-25T12:41:19.962Z,5.90
2019-03-25T12:43:49.262Z,6.37
2019-03-25T12:46:18.735Z,6.10
2019-03-25T12:48:47.634Z,5.60
2019-03-25T12:51:16.253Z,4.10
2019-03-25T12:53:44.954Z,5.33
2019-03-25T12:56:13.674Z,4.33
2019-03-25T12:58:42.284Z,5.33
2019-03-25T13:01:11.085Z,4.90
2019-03-25T13:03:40.778Z,4.70
2019-03-25T13:06:09.932Z,5.13
2019-03-25T13:08:39.056Z,4.87
2019-03-25T13:11:08.781Z,5.43
2019-03-25T13:13:38.396Z,5.10
2019-03-25T13:16:07.462Z,4.97
2019-03-25T13:18:36.498Z,4.57
2019-03-25T13:21:05.301Z,4.67
2019-03-25T13:23:34.519Z,5.73
2019-03-25T13:26:03.618Z,5.00
2019-03-25T13:28:32.410Z,5.13
2019-03-25T13:31:01.028Z,4.83
2019-03-25T13:33:29.642Z,5.70
2019-03-25T13:35:58.877Z,4.93
2019-03-25T13:38:27.940Z,5.47
2019-03-25T13:40:56.714Z,5.73
2019-03-25T13:43:25.326Z,4.70
2019-03-25T13:46:04.821Z,5.60
2019-03-25T13:48:24.294Z,5.90
2019-03-25T13:50:52.894Z,5.97
2019-03-25T13:53:21.511Z,5.40
2019-03-25T13:55:50.315Z,5.43
2019-03-25T13:58:19.160Z,4.23
2019-03-25T14:00:48.223Z,5.03
2019-03-25T14:03:16.826Z,5.50
2019-03-25T14:05:45.466Z,5.43
2019-03-25T14:08:14.057Z,5.10
2019-03-25T14:10:42.654Z,5.80
2019-03-25T14:13:11.366Z,5.40
2019-03-25T14:15:39.961Z,5.47
2019-03-25T14:18:08.555Z,4.10
2019-03-25T14:20:37.175Z,4.77
2019-03-25T14:23:05.891Z,4.77
2019-03-25T14:25:34.489Z,4.57
2019-03-25T14:28:03.391Z,4.83
2019-03-25T14:30:32.450Z,4.03
2019-03-25T14:33:01.164Z,3.80
2019-03-25T14:35:29.890Z,4.23
2019-03-25T14:37:59.221Z,3.87
2019-03-25T14:40:28.170Z,4.30
2019-03-25T14:42:57.675Z,4.50
2019-03-25T14:45:26.992Z,4.70
2019-03-25T14:47:55.887Z,4.57
2019-03-25T14:50:24.530Z,3.97
2019-03-25T14:52:53.142Z,4.83
2019-03-25T14:55:21.748Z,4.13
2019-03-25T14:57:50.370Z,4.17
2019-03-25T15:00:25.104Z,4.07
2019-03-25T15:02:49.466Z,3.70
2019-03-25T15:05:18.171Z,3.43
2019-03-25T15:07:46.795Z,4.03
2019-03-25T15:10:15.542Z,3.47
2019-03-25T15:12:44.600Z,3.47
2019-03-25T15:15:14.363Z,3.80
2019-03-25T15:17:43.086Z,3.63
2019-03-25T15:20:12.206Z,3.63
2019-03-25T15:22:40.903Z,2.90
2019-03-25T15:25:10.001Z,3.60
2019-03-25T15:27:38.608Z,3.33
2019-03-25T15:30:09.506Z,2.90
2019-03-25T15:32:38.122Z,2.80
2019-03-25T15:35:07.847Z,3.47
2019-03-25T15:37:36.450Z,3.20
2019-03-25T15:40:05.864Z,2.90
2019-03-25T15:42:34.538Z,3.27
2019-03-25T15:45:03.113Z,2.70
2019-03-25T15:47:31.831Z,3.03
2019-03-25T15:50:00.501Z,2.47
2019-03-25T15:52:29.121Z,2.70
2019-03-25T15:54:57.725Z,2.60
2019-03-25T15:57:26.306Z,2.37
2019-03-25T15:59:55.290Z,2.60
2019-03-25T16:02:23.876Z,2.53
2019-03-25T16:04:52.479Z,2.60
2019-03-25T16:07:21.237Z,2.57
2019-03-25T16:09:49.815Z,2.33
2019-03-25T16:12:18.426Z,2.23
2019-03-25T16:14:47.140Z,2.60
2019-03-25T16:17:15.854Z,2.03
2019-03-25T16:19:44.598Z,2.07
2019-03-25T16:22:13.211Z,2.00
2019-03-25T16:24:41.791Z,2.10
2019-03-25T16:27:10.531Z,1.83
2019-03-25T16:29:39.242Z,2.00
2019-03-25T16:32:07.860Z,1.93
2019-03-25T16:34:36.464Z,2.63
2019-03-25T16:37:05.190Z,2.43
2019-03-25T16:39:33.788Z,2.53
2019-03-25T16:42:02.410Z,2.60
2019-03-25T16:44:32.224Z,2.73
2019-03-25T16:47:00.874Z,2.30
2019-03-25T16:49:29.710Z,2.07
2019-03-25T16:51:58.378Z,2.00
2019-03-25T16:54:27.011Z,2.63
2019-03-25T16:56:55.631Z,1.97
2019-03-25T16:59:24.234Z,2.40
2019-03-25T17:01:52.947Z,2.47
2019-03-25T17:04:21.554Z,2.00
2019-03-25T17:06:50.145Z,2.03
2019-03-25T17:09:18.750Z,2.20
2019-03-25T17:11:47.379Z,2.47
2019-03-25T17:14:16.066Z,2.40
2019-03-25T17:16:44.750Z,1.83
2019-03-25T17:19:13.387Z,2.37
2019-03-25T17:21:41.987Z,1.93
2019-03-25T17:24:10.619Z,1.83
2019-03-25T17:26:42.547Z,1.93
2019-03-25T17:29:09.683Z,2.07
2019-03-25T17:31:38.283Z,2.03
2019-03-25T17:34:06.931Z,1.80
2019-03-25T17:36:35.596Z,1.73
2019-03-25T17:39:06.090Z,1.67
2019-03-25T17:41:34.691Z,2.63
2019-03-25T17:44:03.760Z,2.10
2019-03-25T17:46:32.490Z,2.30
2019-03-25T17:49:01.094Z,2.73
2019-03-25T17:51:29.741Z,2.37
2019-03-25T17:53:58.367Z,2.13
2019-03-25T17:56:26.951Z,2.67
2019-03-25T17:58:55.559Z,2.37
2019-03-25T18:01:35.895Z,2.70
2019-03-25T18:04:04.907Z,2.50
2019-03-25T18:06:33.646Z,1.90
2019-03-25T18:09:02.338Z,2.30
2019-03-25T18:11:31.486Z,2.10
2019-03-25T18:14:00.640Z,2.50
2019-03-25T18:16:29.259Z,2.03
2019-03-25T18:18:57.851Z,2.27
2019-03-25T18:21:26.494Z,2.10
2019-03-25T18:23:55.254Z,2.77
2019-03-25T18:26:24.344Z,2.37
2019-03-25T18:28:53.415Z,2.07
2019-03-25T18:31:22.806Z,2.00
2019-03-25T18:33:51.652Z,2.20
2019-03-25T18:36:20.232Z,2.30
2019-03-25T18:38:48.876Z,2.13
2019-03-25T18:41:17.606Z,2.03
2019-03-25T18:43:46.671Z,2.50
2019-03-25T18:46:15.992Z,2.33
2019-03-25T18:48:45.062Z,1.90
2019-03-25T18:51:14.119Z,2.07
2019-03-25T18:53:42.888Z,2.37
2019-03-25T18:56:11.627Z,2.27
2019-03-25T18:58:40.538Z,2.43
2019-03-25T19:01:09.131Z,2.30
2019-03-25T19:03:37.906Z,2.47
2019-03-25T19:06:06.785Z,2.33
2019-03-25T19:08:38.237Z,2.40
2019-03-25T19:11:06.104Z,2.10
2019-03-25T19:13:35.320Z,2.50
2019-03-25T19:16:04.687Z,2.47
2019-03-25T19:18:33.294Z,2.17
2019-03-25T19:21:01.888Z,2.47
2019-03-25T19:23:30.453Z,2.50
2019-03-25T19:25:59.059Z,2.57
2019-03-25T19:28:27.805Z,1.80
2019-03-25T19:30:56.439Z,2.30
2019-03-25T19:33:25.005Z,2.27
2019-03-25T19:35:53.643Z,2.63
2019-03-25T19:38:22.197Z,2.37
2019-03-25T19:40:50.798Z,3.03
2019-03-25T19:43:19.437Z,3.00
2019-03-25T19:45:48.418Z,2.40
2019-03-25T19:48:17.034Z,2.43
2019-03-25T19:50:45.671Z,2.90
2019-03-25T19:53:18.922Z,2.67
2019-03-25T19:55:44.651Z,3.00
2019-03-25T19:58:13.218Z,2.97
2019-03-25T20:00:42.360Z,3.60
2019-03-25T20:03:11.392Z,2.13
2019-03-25T20:05:40.485Z,2.70
2019-03-25T20:08:09.746Z,2.80
2019-03-25T20:10:38.695Z,2.23
2019-03-25T20:13:08.097Z,2.43
2019-03-25T20:15:45.889Z,3.10
2019-03-25T20:18:07.134Z,2.57
2019-03-25T20:20:35.838Z,2.83
2019-03-25T20:23:05.175Z,2.27
2019-03-25T20:25:33.863Z,2.40
2019-03-25T20:28:02.551Z,2.73
2019-03-25T20:30:31.254Z,2.53
2019-03-25T20:33:00.019Z,2.67
2019-03-25T20:35:28.623Z,2.80
2019-03-25T20:37:57.254Z,2.40
2019-03-25T20:40:25.928Z,2.87
2019-03-25T20:42:54.531Z,2.67
2019-03-25T20:45:23.098Z,2.80
2019-03-25T20:47:51.709Z,2.70
2019-03-25T20:50:20.313Z,2.73
2019-03-25T20:52:49.271Z,2.57
2019-03-25T20:55:18.498Z,2.30
2019-03-25T20:57:47.202Z,2.77
2019-03-25T21:00:16.346Z,2.53
2019-03-25T21:02:45.842Z,2.83
2019-03-25T21:05:15.423Z,2.43
2019-03-25T21:07:44.804Z,2.87
2019-03-25T21:10:13.913Z,2.87
2019-03-25T21:12:42.887Z,2.63
2019-03-25T21:15:11.699Z,2.63
2019-03-25T21:17:40.788Z,2.30
2019-03-25T21:20:09.785Z,2.53
2019-03-25T21:22:38.842Z,2.53
2019-03-25T21:25:08.158Z,2.47
2019-03-25T21:27:37.404Z,2.90
2019-03-25T21:30:10.027Z,2.43
2019-03-25T21:32:39.124Z,2.53
2019-03-25T21:35:08.950Z,2.83
2019-03-25T21:37:38.149Z,2.40
2019-03-25T21:40:07.045Z,1.97
2019-03-25T21:42:35.883Z,2.40
2019-03-25T21:45:04.670Z,2.57
2019-03-25T21:47:33.650Z,1.97
2019-03-25T21:50:02.779Z,2.93
2019-03-25T21:52:31.932Z,2.33
2019-03-25T21:55:00.920Z,2.80
2019-03-25T21:57:29.519Z,10.47
2019-03-25T21:59:58.157Z,2.93
2019-03-25T22:02:27.575Z,2.20
2019-03-25T22:04:57.333Z,2.60
2019-03-25T22:07:26.012Z,2.27
2019-03-25T22:09:54.640Z,2.13
2019-03-25T22:12:23.746Z,2.50
2019-03-25T22:14:52.736Z,2.30
2019-03-25T22:17:21.335Z,2.23
2019-03-25T22:19:50.094Z,2.43
2019-03-25T22:22:19.058Z,3.07
2019-03-25T22:24:48.064Z,2.63
2019-03-25T22:27:16.823Z,2.60
2019-03-25T22:29:45.526Z,2.53
2019-03-25T22:32:15.141Z,2.23
2019-03-25T22:34:44.566Z,2.30
2019-03-25T22:37:16.055Z,2.60
2019-03-25T22:39:45.042Z,2.37
2019-03-25T22:42:14.070Z,2.50
2019-03-25T22:44:43.339Z,2.20
2019-03-25T22:47:12.471Z,2.23
2019-03-25T22:49:41.045Z,3.67
2019-03-25T22:52:09.639Z,3.23
2019-03-25T22:54:38.603Z,2.63
2019-03-25T22:57:07.632Z,2.83
2019-03-25T22:59:36.356Z,3.13
2019-03-25T23:02:05.241Z,2.87
2019-03-25T23:04:33.853Z,2.60
2019-03-25T23:07:02.443Z,2.47
2019-03-25T23:09:31.030Z,2.80
2019-03-25T23:12:00.210Z,2.50
2019-03-25T23:14:29.295Z,3.20
2019-03-25T23:16:57.881Z,2.33
2019-03-25T23:19:26.475Z,2.63
2019-03-25T23:21:55.154Z,2.57
2019-03-25T23:24:23.761Z,3.40
2019-03-25T23:26:52.359Z,2.20
2019-03-25T23:29:21.049Z,2.50
2019-03-25T23:31:49.744Z,2.37
2019-03-25T23:34:18.356Z,2.57
2019-03-25T23:36:46.951Z,2.97
2019-03-25T23:39:15.546Z,2.57
2019-03-25T23:41:44.342Z,2.73
2019-03-25T23:44:13.273Z,2.77
2019-03-25T23:46:42.348Z,2.50
2019-03-25T23:49:11.347Z,3.10
2019-03-25T23:51:40.027Z,2.40
2019-03-25T23:54:16.374Z,2.73
2019-03-25T23:56:45.758Z,3.60
2019-03-25T23:59:14.743Z,2.53
